Time;durP1;ratioP1;P1;durP2;ratioP2;P2;SDS_P1;SDS_P2;PMS_P1;PMS_P2;Temp;Humidity;BMP_temperature;BMP_pressure;BME280_temperature;BME280_humidity;BME280_pressure;Samples;Min_cycle;Max_cycle;Signal;HPM_P1;HPM_P2
2021/07/14 00:04:25;;;;;;;5.50;1.20;;;;;;;17.93;64.22;99219.56;10419220;28;20136;-61
2021/07/14 00:09:27;;;;;;;6.43;1.30;;;;;;;18.10;64.99;99230.09;10403207;28;20080;-61
2021/07/14 00:25:05;;;;;;;5.93;1.70;;;;;;;18.32;64.32;99208.41;10403318;28;20129;-61
2021/07/14 00:30:09;;;;;;;5.53;1.40;;;;;;;18.35;64.25;99201.97;10403007;28;20081;-61
2021/07/14 00:35:12;;;;;;;6.55;1.30;;;;;;;18.28;64.78;99201.75;10403713;28;20505;-61
2021/07/14 00:40:14;;;;;;;6.82;1.50;;;;;;;18.30;65.19;99191.84;10402429;28;20128;-61
2021/07/14 00:45:16;;;;;;;12.82;1.90;;;;;;;18.26;65.39;99203.75;10402646;28;20129;-61
2021/07/14 00:50:18;;;;;;;9.02;1.60;;;;;;;18.16;65.48;99207.44;10403956;28;20116;-61
2021/07/14 00:55:20;;;;;;;11.60;1.77;;;;;;;18.16;65.72;99212.75;10402877;28;20133;-61
2021/07/14 01:00:21;;;;;;;8.63;1.40;;;;;;;18.16;65.67;99215.38;10402781;28;20052;-61
2021/07/14 01:05:32;;;;;;;8.85;1.60;;;;;;;18.09;66.13;99222.31;10402681;28;20492;-61
2021/07/14 01:10:41;;;;;;;11.68;1.60;;;;;;;18.06;66.14;99223.44;10409714;28;20577;-61
2021/07/14 01:15:48;;;;;;;15.43;1.63;;;;;;;17.94;65.78;99218.56;10409671;28;20554;-61
2021/07/14 01:21:01;;;;;;;13.27;1.55;;;;;;;17.69;65.96;99226.31;10407905;28;20697;-61
2021/07/14 01:26:23;;;;;;;13.07;1.63;;;;;;;17.63;66.61;99211.06;10409548;28;20128;-61
2021/07/14 01:31:25;;;;;;;9.82;1.33;;;;;;;17.80;66.48;99189.06;10408530;28;20136;-61
2021/07/14 01:36:30;;;;;;;4.90;1.20;;;;;;;17.87;66.16;99191.91;10408214;28;20041;-61
2021/07/14 01:41:37;;;;;;;9.90;1.40;;;;;;;17.85;66.19;99193.88;10408119;28;20067;-61
2021/07/14 01:46:41;;;;;;;9.52;1.38;;;;;;;17.90;65.87;99186.31;10408442;28;20041;-61
2021/07/14 01:51:47;;;;;;;4.45;1.30;;;;;;;17.85;65.35;99185.97;10407792;28;20470;-61
2021/07/14 01:56:51;;;;;;;9.82;1.70;;;;;;;17.87;65.49;99181.34;10407752;28;20056;-61
2021/07/14 02:01:55;;;;;;;5.45;1.30;;;;;;;17.97;65.63;99176.78;10407918;28;20057;-61
2021/07/14 02:07:07;;;;;;;9.35;1.30;;;;;;;17.92;65.29;99183.50;10413631;28;20046;-61
2021/07/14 02:12:23;;;;;;;6.95;1.30;;;;;;;17.91;65.30;99189.78;10414017;28;20081;-61
2021/07/14 02:17:29;;;;;;;7.97;1.60;;;;;;;17.98;65.59;99181.06;10413081;28;20538;-61
2021/07/14 02:22:31;;;;;;;6.90;1.40;;;;;;;18.01;65.74;99188.69;10414015;28;20088;-61
2021/07/14 02:27:33;;;;;;;3.40;1.55;;;;;;;17.90;65.30;99181.00;10413919;28;20057;-61
2021/07/14 02:32:37;;;;;;;5.10;1.65;;;;;;;17.80;65.96;99169.72;10413957;28;20410;-61
2021/07/14 02:37:50;;;;;;;6.85;1.60;;;;;;;17.87;65.77;99152.25;10413512;28;20128;-61
2021/07/14 02:42:56;;;;;;;8.52;1.80;;;;;;;17.97;65.67;99163.53;10413532;28;20133;-61
2021/07/14 02:48:00;;;;;;;3.97;1.50;;;;;;;18.02;65.34;99169.19;10412948;28;20509;-61
2021/07/14 02:53:10;;;;;;;5.10;1.40;;;;;;;17.98;65.18;99167.84;10413024;28;20133;-61
2021/07/14 02:58:13;;;;;;;8.30;1.30;;;;;;;17.96;65.44;99177.75;10412969;28;20045;-61
2021/07/14 03:03:15;;;;;;;4.55;1.20;;;;;;;17.99;65.29;99176.59;10408879;28;20490;-61
2021/07/14 03:08:17;;;;;;;8.32;1.40;;;;;;;18.02;65.14;99184.22;10407204;28;20128;-60
2021/07/14 03:13:19;;;;;;;9.43;1.80;;;;;;;17.99;65.47;99189.84;10404779;28;20545;-61
2021/07/14 03:18:24;;;;;;;12.07;1.83;;;;;;;17.64;66.12;99188.94;10404451;28;20046;-61
2021/07/14 03:23:30;;;;;;;8.65;1.50;;;;;;;17.47;66.43;99195.09;10404900;28;20059;-61
2021/07/14 03:28:32;;;;;;;8.00;1.70;;;;;;;17.44;66.75;99195.41;10403380;28;20085;-61
2021/07/14 03:33:34;;;;;;;9.60;1.70;;;;;;;17.62;66.54;99190.91;10399929;28;20100;-61
2021/07/14 03:38:37;;;;;;;6.97;1.50;;;;;;;17.68;66.01;99194.75;10393720;28;20151;-61
2021/07/14 03:43:39;;;;;;;11.13;1.70;;;;;;;17.70;65.95;99183.03;10403007;28;20053;-61
2021/07/14 03:48:42;;;;;;;10.32;1.80;;;;;;;17.63;66.44;99179.34;10401266;28;20045;-61
2021/07/14 03:53:45;;;;;;;6.32;1.50;;;;;;;17.65;66.57;99177.38;10401085;28;20136;-62
2021/07/14 03:58:47;;;;;;;11.43;1.90;;;;;;;17.64;66.94;99166.97;10379978;28;20485;-61
2021/07/14 04:03:53;;;;;;;8.73;1.60;;;;;;;17.71;66.66;99166.19;10401005;28;20120;-61
2021/07/14 04:09:22;;;;;;;11.23;1.85;;;;;;;17.64;66.18;99169.59;10401677;28;20121;-61
2021/07/14 04:14:25;;;;;;;9.15;2.05;;;;;;;17.75;66.07;99183.38;10401248;28;20084;-61
2021/07/14 04:19:27;;;;;;;6.15;1.80;;;;;;;17.85;65.74;99173.53;10396523;28;20133;-61
2021/07/14 04:24:29;;;;;;;7.10;1.90;;;;;;;17.93;65.25;99164.00;10401506;28;20129;-61
2021/07/14 04:29:30;;;;;;;8.13;2.10;;;;;;;18.03;65.40;99175.31;10401387;28;20057;-61
2021/07/14 04:34:33;;;;;;;11.18;2.13;;;;;;;17.99;65.47;99179.25;10402747;28;20167;-61
2021/07/14 04:39:34;;;;;;;7.07;2.20;;;;;;;17.99;64.90;99173.97;10403363;28;20132;-61
2021/07/14 04:44:47;;;;;;;8.02;2.80;;;;;;;17.94;65.12;99192.94;10409936;28;20128;-61
2021/07/14 04:49:49;;;;;;;8.45;2.40;;;;;;;17.96;65.18;99203.38;10409610;28;20133;-61
2021/07/14 04:54:50;;;;;;;8.65;2.40;;;;;;;17.94;65.01;99197.41;10410484;28;20053;-61
2021/07/14 04:59:52;;;;;;;7.47;2.97;;;;;;;17.82;64.89;99204.78;10410554;28;20076;-61
2021/07/14 05:04:54;;;;;;;7.95;2.75;;;;;;;17.69;65.15;99205.16;10408475;28;20120;-61
2021/07/14 05:09:56;;;;;;;8.10;2.70;;;;;;;17.71;65.30;99208.50;10409484;28;20050;-62
2021/07/14 05:14:58;;;;;;;9.32;2.60;;;;;;;17.81;65.58;99208.41;10409808;28;20049;-62
2021/07/14 05:20:00;;;;;;;4.57;2.35;;;;;;;17.87;65.16;99197.22;10391222;28;20543;-63
2021/07/14 05:25:03;;;;;;;5.13;2.42;;;;;;;17.99;64.85;99195.97;10406227;28;20136;-63
2021/07/14 05:30:06;;;;;;;7.68;2.50;;;;;;;17.96;64.77;99190.13;10417014;28;20477;-62
2021/07/14 05:35:09;;;;;;;4.80;2.13;;;;;;;18.16;64.43;99186.28;10396248;28;20449;-62
2021/07/14 05:40:11;;;;;;;5.22;2.47;;;;;;;18.42;64.00;99181.81;10364046;28;20518;-63
2021/07/14 05:45:13;;;;;;;5.25;1.92;;;;;;;18.53;62.85;99173.56;10365544;28;20502;-62
2021/07/14 05:50:15;;;;;;;5.00;1.80;;;;;;;18.75;62.12;99169.53;10365363;28;20046;-63
2021/07/14 05:55:17;;;;;;;3.70;1.90;;;;;;;19.01;61.65;99171.03;10371712;28;20132;-63
2021/07/14 06:00:19;;;;;;;4.93;1.90;;;;;;;19.14;61.56;99170.59;10363963;28;20289;-63
2021/07/14 06:05:22;;;;;;;2.75;1.42;;;;;;;19.47;60.52;99172.28;10354857;28;20046;-62
2021/07/14 06:10:24;;;;;;;3.75;1.73;;;;;;;19.63;59.62;99179.38;10354330;28;20033;-63
2021/07/14 06:15:27;;;;;;;3.22;1.50;;;;;;;19.52;60.16;99172.63;10363320;28;20125;-62
2021/07/14 06:20:28;;;;;;;7.75;1.90;;;;;;;19.52;60.32;99169.13;10365534;28;20477;-62
2021/07/14 06:25:30;;;;;;;3.85;1.58;;;;;;;19.46;60.34;99181.22;10381227;28;20054;-63
2021/07/14 06:30:32;;;;;;;3.55;1.70;;;;;;;19.41;60.79;99178.25;10365019;28;20248;-62
2021/07/14 06:35:34;;;;;;;4.60;1.80;;;;;;;19.29;61.32;99183.06;10366401;28;20077;-63
2021/07/14 06:40:37;;;;;;;4.03;1.70;;;;;;;19.12;60.72;99170.78;10364449;28;20049;-63
2021/07/14 06:45:40;;;;;;;4.32;1.70;;;;;;;19.24;61.46;99166.81;10364736;28;20410;-63
2021/07/14 06:50:42;;;;;;;6.35;1.58;;;;;;;19.21;61.11;99167.16;10364470;28;20069;-63
2021/07/14 06:55:44;;;;;;;4.57;1.60;;;;;;;19.13;61.60;99167.16;10365186;28;20046;-63
2021/07/14 07:00:45;;;;;;;2.63;1.50;;;;;;;19.10;61.54;99174.56;10364660;28;20164;-63
2021/07/14 07:05:48;;;;;;;2.45;1.40;;;;;;;18.91;61.45;99186.25;10364591;28;20046;-63
2021/07/14 07:10:49;;;;;;;3.65;1.40;;;;;;;18.65;61.57;99196.97;10364338;28;20398;-63
2021/07/14 07:15:53;;;;;;;2.25;1.40;;;;;;;18.65;61.49;99183.72;10362616;28;20510;-63
2021/07/14 07:20:57;;;;;;;2.00;1.17;;;;;;;18.80;61.87;99169.84;10362180;28;20449;-62
2021/07/14 07:25:59;;;;;;;3.35;1.35;;;;;;;18.97;61.31;99153.81;10362238;28;20458;-62
2021/07/14 07:31:04;;;;;;;2.38;1.40;;;;;;;19.22;60.44;99134.31;10362887;28;20168;-62
2021/07/14 07:36:07;;;;;;;3.10;1.55;;;;;;;19.34;59.96;99151.56;10378147;28;20069;-62
2021/07/14 07:41:11;;;;;;;4.85;1.33;;;;;;;19.30;60.48;99152.88;10378352;28;20397;-63
2021/07/14 07:46:13;;;;;;;4.18;1.60;;;;;;;19.46;59.69;99152.88;10357082;28;20153;-62
2021/07/14 07:51:15;;;;;;;4.32;1.30;;;;;;;19.70;59.17;99143.25;10361830;28;20050;-62
2021/07/14 07:56:17;;;;;;;4.30;1.50;;;;;;;19.62;59.19;99161.84;10359774;28;20490;-62
2021/07/14 08:01:20;;;;;;;4.85;1.50;;;;;;;19.65;59.47;99166.78;10362808;28;20054;-62
2021/07/14 08:06:22;;;;;;;3.67;1.20;;;;;;;19.72;59.24;99178.41;10376891;28;20511;-62
2021/07/14 08:11:23;;;;;;;7.32;1.55;;;;;;;19.85;58.80;99176.91;10361721;28;20107;-62
2021/07/14 08:16:27;;;;;;;6.50;1.55;;;;;;;19.84;59.02;99193.84;10364370;28;20081;-62
2021/07/14 08:21:28;;;;;;;5.00;1.55;;;;;;;19.91;58.64;99200.13;10368550;28;20050;-62
2021/07/14 08:26:30;;;;;;;3.78;1.40;;;;;;;20.00;58.99;99198.28;10368436;28;20038;-62
2021/07/14 08:31:32;;;;;;;3.88;1.55;;;;;;;20.10;58.67;99193.63;10370926;28;20144;-63
2021/07/14 08:36:34;;;;;;;4.45;1.73;;;;;;;20.05;58.25;99202.06;10385610;28;20413;-63
2021/07/14 08:41:39;;;;;;;1.77;1.50;;;;;;;19.94;58.80;99197.13;10370303;28;20081;-63
2021/07/14 08:46:42;;;;;;;6.65;3.10;;;;;;;19.91;58.57;99186.03;10370537;28;20137;-62
2021/07/14 08:51:45;;;;;;;2.97;1.50;;;;;;;20.14;58.20;99171.03;10368428;28;20045;-62
2021/07/14 08:56:50;;;;;;;4.35;1.80;;;;;;;20.40;57.21;99168.94;10370332;28;20129;-62
2021/07/14 09:01:52;;;;;;;2.65;1.50;;;;;;;20.35;57.49;99175.78;10369805;28;20395;-62
2021/07/14 09:06:54;;;;;;;2.13;1.35;;;;;;;20.17;58.09;99171.50;10369979;28;20076;-62
2021/07/14 09:11:59;;;;;;;3.85;1.60;;;;;;;20.01;58.66;99152.97;10369579;28;20049;-62
2021/07/14 09:17:23;;;;;;;3.05;1.60;;;;;;;20.02;57.97;99140.53;10368891;28;20260;-62
2021/07/14 09:22:27;;;;;;;3.63;1.52;;;;;;;20.29;57.09;99135.63;10369037;28;20565;-62
2021/07/14 09:27:35;;;;;;;5.75;1.70;;;;;;;20.43;57.21;99165.13;10367115;28;20407;-62
2021/07/14 09:32:43;;;;;;;2.78;1.50;;;;;;;20.48;57.35;99181.38;10367081;28;20050;-62
2021/07/14 09:37:46;;;;;;;2.55;1.30;;;;;;;20.27;57.55;99209.31;10367013;28;20048;-61
2021/07/14 09:43:00;;;;;;;3.53;1.33;;;;;;;20.06;58.13;99198.44;10328045;28;20133;-62
2021/07/14 09:48:03;;;;;;;2.00;1.27;;;;;;;19.76;58.71;99192.97;10326225;28;20133;-62
2021/07/14 09:53:10;;;;;;;3.30;1.40;;;;;;;19.76;59.76;99190.34;10326718;28;20550;-62
2021/07/14 09:58:21;;;;;;;1.83;1.30;;;;;;;19.73;59.62;99191.50;10362924;28;20093;-62
2021/07/14 10:03:33;;;;;;;4.07;1.48;;;;;;;19.69;60.45;99197.28;10367148;28;20536;-62
2021/07/14 10:08:40;;;;;;;4.85;1.70;;;;;;;19.50;60.20;99211.75;10366686;28;20057;-62
2021/07/14 10:14:07;;;;;;;3.03;1.70;;;;;;;19.23;62.30;99204.09;10366684;28;20528;-62
2021/07/14 10:19:12;;;;;;;3.03;1.52;;;;;;;19.16;62.75;99203.06;10366964;28;20121;-62
2021/07/14 10:24:19;;;;;;;4.45;1.80;;;;;;;19.19;62.63;99182.38;10366698;28;20148;-62
2021/07/14 10:29:21;;;;;;;3.00;1.73;;;;;;;19.48;62.12;99181.06;10366028;28;20089;-62
2021/07/14 10:34:25;;;;;;;5.20;1.88;;;;;;;19.53;62.28;99194.66;10366907;28;20080;-62
2021/07/14 10:39:28;;;;;;;2.70;1.80;;;;;;;19.37;62.80;99204.28;10365737;28;20136;-62
2021/07/14 10:44:33;;;;;;;5.97;2.10;;;;;;;19.15;63.23;99223.47;10365136;28;20048;-62
2021/07/14 10:49:36;;;;;;;5.20;2.20;;;;;;;18.93;64.45;99228.53;10366281;28;20045;-62
2021/07/14 10:54:38;;;;;;;5.85;2.58;;;;;;;18.81;64.83;99237.75;10365165;28;20068;-61
2021/07/14 10:59:40;;;;;;;11.63;2.85;;;;;;;18.81;65.05;99251.81;10364852;28;20482;-62
2021/07/14 11:04:50;;;;;;;7.63;2.90;;;;;;;18.80;65.48;99257.28;10365073;28;20049;-62
2021/07/14 11:09:52;;;;;;;6.05;3.33;;;;;;;18.87;65.50;99261.75;10364745;28;20517;-62
2021/07/14 11:14:58;;;;;;;5.47;3.65;;;;;;;18.79;66.16;99252.97;10364413;28;20082;-62
2021/07/14 11:20:12;;;;;;;8.05;4.30;;;;;;;18.98;65.87;99242.94;10364615;28;20485;-62
2021/07/14 11:25:26;;;;;;;8.38;4.70;;;;;;;19.04;64.95;99228.22;10364540;28;20038;-62
2021/07/14 11:30:33;;;;;;;6.75;5.75;;;;;;;19.02;65.41;99241.66;10378473;28;20118;-62
2021/07/14 11:35:40;;;;;;;10.20;5.70;;;;;;;18.88;65.27;99244.91;10364156;28;20076;-62
2021/07/14 11:40:45;;;;;;;8.00;6.25;;;;;;;18.82;65.29;99237.59;10363331;28;20100;-62
2021/07/14 11:45:53;;;;;;;9.25;6.82;;;;;;;18.89;65.85;99235.94;10363938;28;20100;-62
2021/07/14 11:51:15;;;;;;;10.05;6.82;;;;;;;18.97;65.75;99235.16;10363366;28;20049;-63
2021/07/14 11:56:22;;;;;;;10.88;7.00;;;;;;;19.04;65.23;99231.72;10363232;28;20077;-62
2021/07/14 12:01:24;;;;;;;8.32;5.80;;;;;;;19.04;65.05;99237.03;10362986;28;20488;-62
2021/07/14 12:06:46;;;;;;;8.65;5.85;;;;;;;19.17;64.98;99231.25;10363696;28;20042;-62
2021/07/14 12:11:49;;;;;;;;;;;;;;;19.11;65.37;99240.69;10363169;28;20566;-62
2021/07/14 12:16:58;;;;;;;7.55;5.65;;;;;;;19.47;64.17;99241.22;10363456;28;19928;-62
2021/07/14 12:22:10;;;;;;;6.68;5.95;;;;;;;19.54;64.22;99242.25;10363311;28;20057;-62
2021/07/14 12:27:35;;;;;;;11.20;6.55;;;;;;;19.36;64.38;99247.69;10362722;28;20548;-62
2021/07/14 12:32:45;;;;;;;9.68;6.07;;;;;;;19.32;62.70;99249.00;10337805;28;20054;-62
2021/07/14 12:37:49;;;;;;;11.48;6.63;;;;;;;19.39;63.54;99252.66;10322134;28;20054;-62
2021/07/14 12:42:53;;;;;;;10.75;6.90;;;;;;;19.40;63.53;99238.41;10321329;28;20495;-62
2021/07/14 12:47:59;;;;;;;8.75;7.50;;;;;;;19.52;63.47;99235.44;10322276;28;20575;-62
2021/07/14 12:53:02;;;;;;;9.15;7.30;;;;;;;19.56;63.80;99220.84;10321669;28;20082;-62
2021/07/14 12:58:07;;;;;;;9.15;7.20;;;;;;;19.65;63.25;99222.50;10356332;28;20085;-62
2021/07/14 13:03:31;;;;;;;11.13;6.45;;;;;;;19.62;63.31;99223.69;10367242;28;20402;-62
2021/07/14 13:08:35;;;;;;;8.13;5.55;;;;;;;19.32;64.01;99217.19;10384268;28;20054;-62
2021/07/14 13:13:38;;;;;;;9.93;4.88;;;;;;;19.19;64.06;99208.91;10384672;28;20093;-62
2021/07/14 13:18:41;;;;;;;8.38;5.38;;;;;;;19.14;63.88;99215.66;10369147;28;20120;-62
2021/07/14 13:23:43;;;;;;;6.25;5.07;;;;;;;19.03;64.32;99214.13;10384355;28;20085;-62
2021/07/14 13:28:44;;;;;;;7.15;5.15;;;;;;;19.03;64.26;99214.13;10383937;28;20058;-63
2021/07/14 13:33:55;;;;;;;7.88;4.50;;;;;;;19.02;63.99;99216.97;10369493;28;20050;-62
2021/07/14 13:38:58;;;;;;;6.95;4.55;;;;;;;18.92;64.60;99222.38;10367997;28;20153;-62
2021/07/14 13:44:25;;;;;;;5.95;4.10;;;;;;;19.02;64.15;99219.63;10368597;28;20054;-62
2021/07/14 13:49:29;;;;;;;7.85;3.97;;;;;;;19.12;63.71;99226.44;10368209;28;20066;-62
2021/07/14 13:54:34;;;;;;;6.65;3.70;;;;;;;19.06;64.35;99221.78;10367224;28;20485;-62
2021/07/14 13:59:48;;;;;;;5.07;4.15;;;;;;;19.06;64.47;99227.09;10367490;28;20510;-62
2021/07/14 14:04:59;;;;;;;7.80;4.28;;;;;;;19.13;64.73;99220.16;10367735;28;20398;-62
2021/07/14 14:10:05;;;;;;;5.20;3.83;;;;;;;19.04;64.24;99209.69;10366468;28;20133;-62
2021/07/14 14:15:12;;;;;;;8.63;4.72;;;;;;;19.00;64.95;99210.97;10366512;28;20053;-62
2021/07/14 14:20:15;;;;;;;6.28;3.25;;;;;;;19.00;64.57;99198.56;10366827;28;20165;-62
2021/07/14 14:25:22;;;;;;;7.82;3.60;;;;;;;18.89;65.07;99192.75;10366825;28;20486;-62
2021/07/14 14:30:28;;;;;;;4.75;3.22;;;;;;;18.83;64.81;99180.13;10366330;28;20137;-62
2021/07/14 14:35:35;;;;;;;5.38;3.55;;;;;;;18.90;65.17;99184.63;10365907;28;20046;-62
2021/07/14 14:40:39;;;;;;;8.23;3.17;;;;;;;18.99;64.73;99165.06;10365804;28;20054;-62
2021/07/14 14:45:44;;;;;;;5.63;2.50;;;;;;;19.07;64.41;99182.88;10366450;28;20124;-62
2021/07/14 14:50:47;;;;;;;5.25;2.50;;;;;;;19.08;64.41;99168.59;10365617;28;20100;-62
2021/07/14 14:55:49;;;;;;;4.03;2.60;;;;;;;19.14;64.37;99174.09;10365093;28;20082;-62
2021/07/14 15:00:50;;;;;;;5.57;2.45;;;;;;;18.80;64.96;99207.78;10365029;28;20079;-62
2021/07/14 15:05:52;;;;;;;8.95;3.95;;;;;;;18.52;65.99;99187.81;10364260;28;20076;-62
2021/07/14 15:10:54;;;;;;;9.13;2.92;;;;;;;18.54;66.37;99196.44;10365578;28;20129;-62
2021/07/14 15:15:56;;;;;;;4.10;2.05;;;;;;;18.58;66.34;99182.69;10365047;28;20060;-62
2021/07/14 15:20:59;;;;;;;5.45;1.83;;;;;;;18.73;66.00;99164.38;10364764;28;20050;-62
2021/07/14 15:31:03;;;;;;;5.15;1.80;;;;;;;18.35;66.47;99213.41;10364460;28;20654;-62
2021/07/14 15:36:07;;;;;;;3.08;1.70;;;;;;;18.27;66.62;99217.81;10364007;28;20050;-62
2021/07/14 15:41:08;;;;;;;4.80;1.70;;;;;;;18.36;66.57;99230.13;10369945;28;20132;-62
2021/07/14 15:46:10;;;;;;;4.68;1.85;;;;;;;18.49;66.77;99193.41;10402782;28;20042;-62
2021/07/14 15:51:12;;;;;;;5.25;1.50;;;;;;;18.51;66.62;99223.22;10402811;28;20167;-62
2021/07/14 15:56:14;;;;;;;2.70;1.63;;;;;;;18.42;67.36;99190.56;10359048;28;20146;-63
2021/07/14 16:01:16;;;;;;;4.28;1.80;;;;;;;18.63;67.14;99184.88;10361574;28;20095;-62
2021/07/14 16:06:18;;;;;;;10.27;1.60;;;;;;;18.76;65.81;99179.94;10397173;28;20470;-62
2021/07/14 16:11:20;;;;;;;4.07;1.50;;;;;;;18.58;65.86;99176.59;10417673;28;20049;-62
2021/07/14 16:16:22;;;;;;;2.55;1.35;;;;;;;18.40;66.33;99194.38;10402114;28;20513;-62
2021/07/14 16:21:23;;;;;;;3.08;1.17;;;;;;;18.28;66.65;99193.00;10361678;28;20526;-62
2021/07/14 16:26:25;;;;;;;3.45;1.30;;;;;;;18.47;67.04;99180.34;10378713;28;20081;-63
2021/07/14 16:31:27;;;;;;;2.45;1.10;;;;;;;18.33;66.90;99183.59;10344186;28;20533;-62
2021/07/14 16:36:29;;;;;;;2.28;1.23;;;;;;;18.28;66.75;99166.53;10363808;28;20100;-62
2021/07/14 16:41:31;;;;;;;5.47;1.10;;;;;;;18.48;66.67;99134.31;10369242;28;20045;-62
2021/07/14 16:46:32;;;;;;;4.05;1.10;;;;;;;18.49;66.45;99148.41;10368418;28;20494;-62
2021/07/14 16:51:34;;;;;;;2.67;1.05;;;;;;;18.49;65.88;99157.19;10368825;28;20054;-62
2021/07/14 16:56:36;;;;;;;3.42;1.00;;;;;;;18.60;65.37;99164.84;10368543;28;20049;-62
2021/07/14 17:01:38;;;;;;;1.75;0.90;;;;;;;18.74;65.26;99163.38;10368265;28;20136;-62
2021/07/14 17:06:40;;;;;;;3.60;1.00;;;;;;;18.82;65.07;99139.56;10367493;28;20588;-62
2021/07/14 17:11:41;;;;;;;1.98;1.00;;;;;;;18.52;65.56;99156.03;10368449;28;20121;-62
2021/07/14 17:16:43;;;;;;;3.78;1.30;;;;;;;18.38;66.54;99146.88;10382658;28;20056;-62
2021/07/14 17:21:46;;;;;;;3.58;1.05;;;;;;;18.35;66.62;99175.50;10394090;28;20087;-62
2021/07/14 17:26:47;;;;;;;5.80;1.10;;;;;;;18.21;66.63;99176.94;10408293;28;20120;-62
2021/07/14 17:31:49;;;;;;;5.03;1.20;;;;;;;18.18;66.27;99163.97;10407778;28;20234;-62
2021/07/14 17:36:52;;;;;;;3.80;1.10;;;;;;;18.21;65.85;99136.38;10401267;28;20050;-62
2021/07/14 17:41:54;;;;;;;2.40;1.00;;;;;;;18.10;65.95;99120.75;10367388;28;20104;-62
2021/07/14 17:46:56;;;;;;;1.42;0.98;;;;;;;18.01;66.23;99134.94;10365091;28;20517;-62
2021/07/14 17:51:58;;;;;;;2.47;1.00;;;;;;;17.94;66.41;99126.81;10366790;28;20129;-62
2021/07/14 17:57:00;;;;;;;3.70;1.23;;;;;;;17.84;66.27;99129.56;10380373;28;20064;-62
2021/07/14 18:02:03;;;;;;;2.22;1.00;;;;;;;17.75;66.97;99138.44;10374899;28;20057;-62
2021/07/14 18:07:05;;;;;;;3.03;0.80;;;;;;;17.59;67.16;99133.03;10367665;28;20405;-62
2021/07/14 18:12:07;;;;;;;3.90;0.90;;;;;;;17.56;66.84;99141.31;10371978;28;20111;-62
2021/07/14 18:17:08;;;;;;;1.95;0.93;;;;;;;17.47;67.10;99151.94;10398548;28;20053;-63
2021/07/14 18:22:11;;;;;;;3.50;0.82;;;;;;;17.59;66.95;99159.47;10388586;28;20464;-62
2021/07/14 18:27:12;;;;;;;2.35;1.00;;;;;;;17.61;66.54;99159.31;10362795;28;20064;-62
2021/07/14 18:32:14;;;;;;;3.22;1.00;;;;;;;17.62;67.00;99166.28;10365844;28;20108;-62
2021/07/14 18:37:16;;;;;;;1.70;0.93;;;;;;;17.68;66.68;99171.78;10364762;28;20502;-62
2021/07/14 18:42:18;;;;;;;3.25;0.82;;;;;;;17.59;67.16;99166.56;10364521;28;20080;-62
2021/07/14 18:47:20;;;;;;;2.42;0.73;;;;;;;17.59;67.04;99170.06;10363774;28;20388;-62
2021/07/14 18:52:21;;;;;;;7.35;1.13;;;;;;;17.68;67.56;99171.78;10363843;28;20442;-62
2021/07/14 18:57:24;;;;;;;3.80;0.90;;;;;;;17.68;67.33;99165.66;10364510;28;20413;-62
2021/07/14 19:02:27;;;;;;;2.60;0.80;;;;;;;17.61;67.24;99170.72;10363807;28;20554;-62
2021/07/14 19:07:30;;;;;;;2.45;0.93;;;;;;;17.64;67.48;99167.78;10364220;28;20046;-62
2021/07/14 19:12:32;;;;;;;4.20;1.00;;;;;;;17.59;67.25;99172.69;10364245;28;20492;-62
2021/07/14 19:17:34;;;;;;;4.63;0.93;;;;;;;17.55;67.59;99181.09;10362852;28;20137;-62
2021/07/14 19:22:36;;;;;;;6.43;1.00;;;;;;;17.56;67.62;99194.19;10374750;28;20053;-62
2021/07/14 19:27:40;;;;;;;2.60;0.70;;;;;;;17.51;67.24;99192.97;10403684;28;20528;-62
2021/07/14 19:32:42;;;;;;;3.90;1.00;;;;;;;17.49;67.57;99197.56;10404838;28;20666;-62
2021/07/14 19:37:44;;;;;;;2.88;1.20;;;;;;;17.39;68.05;99197.66;10367091;28;20077;-62
2021/07/14 19:42:49;;;;;;;3.88;1.20;;;;;;;17.43;67.71;99199.00;10362699;28;20498;-62
2021/07/14 19:47:51;;;;;;;8.40;0.88;;;;;;;17.42;67.36;99193.88;10362300;28;20042;-62
2021/07/14 19:52:53;;;;;;;3.70;0.85;;;;;;;17.37;67.76;99198.78;10361664;28;20453;-62
2021/07/14 19:57:54;;;;;;;2.78;0.75;;;;;;;17.32;67.96;99198.41;10362478;28;20121;-62
2021/07/14 20:02:56;;;;;;;4.05;1.02;;;;;;;17.15;68.37;99194.78;10362590;28;20140;-62
2021/07/14 20:07:58;;;;;;;4.15;1.25;;;;;;;17.16;68.81;99191.13;10362444;28;20137;-62
2021/07/14 20:13:00;;;;;;;11.32;1.60;;;;;;;17.17;68.69;99197.25;10367647;28;20136;-62
2021/07/14 20:18:02;;;;;;;3.22;1.42;;;;;;;17.18;69.11;99196.28;10370598;28;20042;-62
2021/07/14 20:23:03;;;;;;;3.50;1.08;;;;;;;17.09;69.17;99200.66;10389536;28;20053;-62
2021/07/14 20:28:05;;;;;;;3.97;1.10;;;;;;;17.15;69.21;99207.97;10410697;28;20057;-62
2021/07/14 20:33:08;;;;;;;5.53;1.73;;;;;;;17.27;68.60;99216.50;10409581;28;20055;-62
2021/07/14 20:38:10;;;;;;;2.33;1.20;;;;;;;17.21;68.99;99217.94;10370592;28;20472;-62
2021/07/14 20:43:12;;;;;;;4.47;1.50;;;;;;;17.23;69.40;99218.63;10369639;28;20054;-62
2021/07/14 20:48:15;;;;;;;4.03;1.60;;;;;;;17.18;69.25;99223.53;10370210;28;20161;-62
2021/07/14 20:53:16;;;;;;;3.97;1.40;;;;;;;17.11;69.63;99225.13;10369002;28;20128;-62
2021/07/14 20:58:18;;;;;;;4.75;1.80;;;;;;;17.05;70.12;99231.00;10368166;28;20547;-62
2021/07/14 21:03:24;;;;;;;7.40;1.60;;;;;;;16.95;69.77;99224.94;10369497;28;20491;-62
2021/07/14 21:08:26;;;;;;;6.82;1.60;;;;;;;17.01;70.03;99229.63;10370040;28;20543;-62
2021/07/14 21:13:27;;;;;;;5.15;1.50;;;;;;;17.07;69.79;99228.19;10369530;28;20129;-59
2021/07/14 21:18:29;;;;;;;5.13;1.45;;;;;;;17.05;69.53;99231.00;10369912;28;20057;-59
2021/07/14 21:23:31;;;;;;;10.77;1.55;;;;;;;17.14;69.93;99230.09;10368894;28;20049;-59
2021/07/14 21:28:33;;;;;;;16.23;1.80;;;;;;;17.24;69.53;99222.91;10367608;28;20088;-59
2021/07/14 21:33:35;;;;;;;9.55;1.80;;;;;;;17.26;69.59;99215.66;10367874;28;20498;-59
2021/07/14 21:38:37;;;;;;;7.53;2.60;;;;;;;17.19;69.81;99217.28;10367563;28;20574;-59
2021/07/14 21:43:39;;;;;;;11.57;1.90;;;;;;;16.97;70.42;99217.72;10366740;28;20104;-60
2021/07/14 21:48:40;;;;;;;8.82;1.55;;;;;;;16.99;70.16;99224.50;10367721;28;20154;-59
2021/07/14 21:53:42;;;;;;;6.50;1.52;;;;;;;17.04;69.50;99216.13;10365815;28;20041;-60
2021/07/14 21:58:44;;;;;;;6.68;1.70;;;;;;;17.05;69.61;99225.72;10367475;28;20049;-59
2021/07/14 22:03:45;;;;;;;11.05;2.13;;;;;;;17.04;69.76;99237.25;10358590;28;20054;-59
2021/07/14 22:08:47;;;;;;;5.53;1.70;;;;;;;16.95;69.74;99240.81;10349374;28;20042;-59
2021/07/14 22:13:49;;;;;;;9.23;1.60;;;;;;;16.83;69.93;99236.69;10361635;28;20046;-59
2021/07/14 22:18:51;;;;;;;5.30;1.90;;;;;;;16.79;70.06;99240.63;10359002;28;20042;-59
2021/07/14 22:23:54;;;;;;;9.07;2.58;;;;;;;16.71;70.80;99251.09;10365311;28;20057;-59
2021/07/14 22:28:57;;;;;;;6.20;2.10;;;;;;;16.88;70.56;99247.63;10348657;28;20534;-59
2021/07/14 22:34:09;;;;;;;9.13;2.88;;;;;;;16.86;70.74;99263.63;10343193;28;20041;-59
2021/07/14 22:39:13;;;;;;;5.95;2.08;;;;;;;16.85;70.54;99254.03;10351093;28;20058;-59
2021/07/14 22:44:14;;;;;;;10.02;2.53;;;;;;;16.90;70.60;99266.81;10363393;28;20518;-60
2021/07/14 22:49:16;;;;;;;8.23;2.60;;;;;;;16.86;70.83;99260.16;10362781;28;20459;-60
2021/07/14 22:54:18;;;;;;;8.57;3.78;;;;;;;16.77;70.96;99269.78;10364031;28;20053;-60
2021/07/14 22:59:19;;;;;;;5.97;3.28;;;;;;;16.72;70.90;99273.84;10363891;28;20502;-59
2021/07/14 23:04:21;;;;;;;10.00;4.55;;;;;;;16.69;70.81;99269.69;10363915;28;20049;-59
2021/07/14 23:09:23;;;;;;;12.18;5.53;;;;;;;16.61;71.06;99274.06;10363940;28;20041;-59
2021/07/14 23:14:24;;;;;;;7.65;4.32;;;;;;;16.68;71.01;99261.94;10357249;28;20202;-60
2021/07/14 23:19:26;;;;;;;13.32;4.40;;;;;;;16.85;70.54;99258.53;10362833;28;20546;-60
2021/07/14 23:24:28;;;;;;;13.80;3.88;;;;;;;17.08;70.25;99262.38;10362134;28;20050;-60
2021/07/14 23:29:29;;;;;;;14.85;5.10;;;;;;;17.15;69.93;99252.91;10361672;28;20128;-60
2021/07/14 23:34:31;;;;;;;13.10;6.07;;;;;;;17.03;69.78;99260.22;10363895;28;20134;-59
2021/07/14 23:39:32;;;;;;;10.48;4.20;;;;;;;16.96;70.48;99258.28;10363837;28;20133;-60
2021/07/14 23:44:34;;;;;;;13.10;4.20;;;;;;;17.03;70.40;99264.66;10361770;28;20141;-60
2021/07/14 23:49:36;;;;;;;15.02;5.70;;;;;;;17.03;70.31;99267.31;10363576;28;20046;-60